Time;durP1;ratioP1;P1;durP2;ratioP2;P2;SDS_P1;SDS_P2;PMS_P1;PMS_P2;Temp;Humidity;BMP_temperature;BMP_pressure;BME280_temperature;BME280_humidity;BME280_pressure;Samples;Min_cycle;Max_cycle;Signal;HPM_P1;HPM_P2
2023/10/31 00:02:28;;;;;;;7.53;3.17;;;6.60;99.90;;;;;;6201570;28;20057;-82
2023/10/31 00:05:29;;;;;;;7.25;2.83;;;6.50;99.90;;;;;;6235656;28;20402;-82
2023/10/31 00:08:31;;;;;;;5.80;2.50;;;6.50;99.90;;;;;;6219618;28;20160;-82
2023/10/31 00:11:32;;;;;;;8.43;2.92;;;6.40;99.90;;;;;;6204573;28;20054;-82
2023/10/31 00:14:34;;;;;;;8.30;2.95;;;6.40;99.90;;;;;;6234113;28;20544;-82
2023/10/31 00:17:36;;;;;;;8.70;2.83;;;6.40;99.90;;;;;;6171346;28;20051;-82
2023/10/31 00:20:37;;;;;;;6.88;2.70;;;6.30;99.90;;;;;;6168733;28;20061;-82
2023/10/31 00:23:39;;;;;;;6.97;2.90;;;6.40;99.90;;;;;;6178882;28;20055;-82
2023/10/31 00:26:41;;;;;;;10.15;2.95;;;6.30;99.90;;;;;;6167805;28;20063;-82
2023/10/31 00:29:42;;;;;;;6.70;2.53;;;6.30;99.90;;;;;;6167490;28;20066;-81
2023/10/31 00:32:44;;;;;;;8.07;2.65;;;6.20;99.90;;;;;;6173791;28;20050;-82
2023/10/31 00:35:45;;;;;;;6.72;2.75;;;6.20;99.90;;;;;;6151503;28;20061;-82
2023/10/31 00:38:47;;;;;;;5.32;2.50;;;6.20;99.90;;;;;;6171544;28;20047;-82
2023/10/31 00:41:49;;;;;;;8.05;2.58;;;6.10;99.90;;;;;;6171380;28;20058;-82
2023/10/31 00:44:51;;;;;;;6.78;2.55;;;6.20;99.90;;;;;;6156724;28;20067;-82
2023/10/31 00:47:52;;;;;;;8.43;2.58;;;6.20;99.90;;;;;;6165298;28;20055;-82
2023/10/31 00:50:54;;;;;;;6.05;2.28;;;6.20;99.90;;;;;;6168547;28;20074;-82
2023/10/31 00:53:56;;;;;;;7.47;2.58;;;6.20;99.90;;;;;;6171490;28;20055;-82
2023/10/31 00:56:57;;;;;;;7.70;2.45;;;6.20;99.90;;;;;;6171082;28;20509;-82
2023/10/31 00:59:59;;;;;;;4.60;2.03;;;6.10;99.90;;;;;;6159596;28;20066;-82
2023/10/31 01:03:00;;;;;;;7.28;2.78;;;6.10;99.90;;;;;;6171651;28;20094;-82
2023/10/31 01:06:02;;;;;;;5.18;2.30;;;6.10;99.90;;;;;;6170259;28;20129;-81
2023/10/31 01:09:04;;;;;;;9.65;2.42;;;6.10;99.90;;;;;;6170381;28;20055;-82
2023/10/31 01:12:05;;;;;;;6.30;2.10;;;6.10;99.90;;;;;;6171427;28;20058;-81
2023/10/31 01:15:07;;;;;;;4.15;2.10;;;6.00;99.90;;;;;;6176816;28;20065;-81
2023/10/31 01:18:08;;;;;;;5.32;1.95;;;6.00;99.90;;;;;;6218681;28;20054;-81
2023/10/31 01:21:10;;;;;;;4.95;2.00;;;6.00;99.90;;;;;;6182594;28;20057;-81
2023/10/31 01:24:12;;;;;;;6.50;2.00;;;6.00;99.90;;;;;;6217383;28;20423;-81
2023/10/31 01:27:14;;;;;;;6.88;1.80;;;6.00;99.90;;;;;;6218040;28;20061;-81
2023/10/31 01:30:15;;;;;;;4.38;1.80;;;6.00;99.90;;;;;;6205148;28;20065;-81
2023/10/31 01:33:17;;;;;;;6.70;1.85;;;5.90;99.90;;;;;;6219386;28;20046;-80
2023/10/31 01:36:19;;;;;;;5.88;2.20;;;5.90;99.90;;;;;;6218844;28;20049;-81
2023/10/31 01:39:20;;;;;;;6.43;2.00;;;5.90;99.90;;;;;;6202631;28;20058;-82
2023/10/31 01:42:22;;;;;;;5.18;2.10;;;5.90;99.90;;;;;;6206740;28;20057;-81
2023/10/31 01:45:24;;;;;;;5.60;2.00;;;5.90;99.90;;;;;;6229343;28;20104;-81
2023/10/31 01:48:25;;;;;;;9.18;2.50;;;5.90;99.90;;;;;;6218897;28;20058;-81
2023/10/31 01:51:27;;;;;;;7.10;1.80;;;5.90;99.90;;;;;;6218850;28;20050;-81
2023/10/31 01:54:29;;;;;;;5.57;1.73;;;5.90;99.90;;;;;;6212335;28;20069;-82
2023/10/31 01:57:30;;;;;;;4.55;1.63;;;5.80;99.90;;;;;;6223337;28;20073;-81
2023/10/31 02:00:32;;;;;;;5.75;2.08;;;5.80;99.90;;;;;;6221431;28;20049;-82
2023/10/31 02:03:33;;;;;;;5.10;2.10;;;5.80;99.90;;;;;;6193143;28;20414;-82
2023/10/31 02:06:35;;;;;;;7.78;2.15;;;5.80;99.90;;;;;;6238213;28;20049;-81
2023/10/31 02:09:37;;;;;;;5.63;1.73;;;5.80;99.90;;;;;;6223671;28;20054;-81
2023/10/31 02:12:38;;;;;;;3.92;1.58;;;5.80;99.90;;;;;;6222167;28;20050;-82
2023/10/31 02:15:40;;;;;;;4.43;1.90;;;5.80;99.90;;;;;;6194992;28;20070;-82
2023/10/31 02:18:42;;;;;;;4.70;1.50;;;5.80;99.90;;;;;;6221692;28;20053;-82
2023/10/31 02:21:43;;;;;;;5.28;1.73;;;5.80;99.90;;;;;;6223822;28;20390;-81
2023/10/31 02:24:45;;;;;;;5.28;1.90;;;5.80;99.90;;;;;;6222100;28;20061;-82
2023/10/31 02:27:46;;;;;;;6.65;1.80;;;5.80;99.90;;;;;;6223391;28;20069;-82
2023/10/31 02:30:48;;;;;;;6.15;1.90;;;5.80;99.90;;;;;;6218262;28;20061;-82
2023/10/31 02:33:50;;;;;;;5.60;1.70;;;5.80;99.90;;;;;;6174641;28;20054;-82
2023/10/31 02:36:51;;;;;;;5.40;1.80;;;5.80;99.90;;;;;;6222177;28;20755;-81
2023/10/31 02:39:53;;;;;;;5.15;1.80;;;5.70;99.90;;;;;;6188826;28;20058;-82
2023/10/31 02:42:54;;;;;;;6.47;1.63;;;5.70;99.90;;;;;;6220399;28;20073;-82
2023/10/31 02:45:56;;;;;;;5.10;1.70;;;5.70;99.90;;;;;;6219645;28;20060;-81
2023/10/31 02:48:58;;;;;;;4.28;1.40;;;5.70;99.90;;;;;;6188306;28;20046;-82
2023/10/31 02:51:59;;;;;;;4.45;1.42;;;5.80;99.90;;;;;;6223790;28;20061;-81
2023/10/31 02:55:01;;;;;;;4.80;1.60;;;5.70;99.90;;;;;;6222907;28;20049;-81
2023/10/31 02:58:03;;;;;;;3.28;1.40;;;5.70;99.90;;;;;;6217979;28;20046;-81
2023/10/31 03:01:05;;;;;;;4.07;1.40;;;5.80;99.90;;;;;;6195166;28;20051;-82
2023/10/31 03:04:06;;;;;;;3.53;1.50;;;5.70;99.90;;;;;;6224497;28;20050;-81
2023/10/31 03:07:08;;;;;;;5.07;1.48;;;5.80;99.90;;;;;;6220266;28;20164;-80
2023/10/31 03:10:09;;;;;;;3.60;1.40;;;5.80;99.90;;;;;;6177415;28;20054;-80
2023/10/31 03:13:11;;;;;;;4.70;1.60;;;5.90;99.90;;;;;;6221874;28;20049;-80
2023/10/31 03:16:14;;;;;;;4.45;1.35;;;5.90;99.90;;;;;;6219696;28;20062;-80
2023/10/31 03:19:15;;;;;;;4.82;1.20;;;5.90;99.90;;;;;;6205623;28;20456;-80
2023/10/31 03:22:18;;;;;;;5.47;1.30;;;5.90;99.90;;;;;;6199174;28;20160;-80
2023/10/31 03:25:20;;;;;;;3.70;1.10;;;5.90;99.90;;;;;;6237397;28;20057;-81
2023/10/31 03:28:25;;;;;;;4.07;1.25;;;6.00;99.90;;;;;;6215797;28;20054;-81
2023/10/31 03:31:27;;;;;;;3.65;1.30;;;6.00;99.90;;;;;;6210546;28;20108;-81
2023/10/31 03:34:29;;;;;;;9.82;1.40;;;6.00;99.90;;;;;;6221365;28;20066;-81
2023/10/31 03:37:30;;;;;;;3.47;1.30;;;6.10;99.90;;;;;;6220477;28;20056;-81
2023/10/31 03:40:32;;;;;;;2.70;1.00;;;6.20;99.90;;;;;;6195443;28;20062;-81
2023/10/31 03:43:34;;;;;;;2.72;1.10;;;6.30;99.90;;;;;;6218411;28;20500;-81
2023/10/31 03:46:35;;;;;;;3.67;1.20;;;6.40;99.90;;;;;;6220409;28;20054;-80
2023/10/31 03:49:37;;;;;;;3.22;1.10;;;6.50;99.90;;;;;;6188867;28;20050;-81
2023/10/31 03:52:38;;;;;;;3.90;1.35;;;6.60;99.90;;;;;;6203399;28;20101;-82
2023/10/31 03:55:40;;;;;;;7.13;1.50;;;6.60;99.90;;;;;;6235978;28;20137;-81
2023/10/31 03:58:42;;;;;;;5.47;1.20;;;6.70;99.90;;;;;;6218161;28;20057;-81
2023/10/31 04:01:44;;;;;;;6.53;1.15;;;6.80;99.90;;;;;;6220861;28;20501;-81
2023/10/31 04:04:45;;;;;;;3.50;1.13;;;6.90;99.90;;;;;;6219804;28;20061;-80
2023/10/31 04:07:47;;;;;;;3.67;1.10;;;6.90;99.90;;;;;;6200635;28;20062;-81
2023/10/31 04:10:49;;;;;;;2.58;1.20;;;6.90;99.90;;;;;;6219644;28;20057;-80
2023/10/31 04:13:50;;;;;;;4.40;1.23;;;7.00;99.90;;;;;;6217810;28;20123;-82
2023/10/31 04:16:52;;;;;;;3.75;1.20;;;7.10;99.90;;;;;;6226772;28;20057;-82
2023/10/31 04:19:54;;;;;;;3.92;1.10;;;7.10;99.90;;;;;;6194838;28;20054;-81
2023/10/31 04:22:55;;;;;;;5.30;1.25;;;7.20;99.90;;;;;;6230836;28;20414;-80
2023/10/31 04:25:57;;;;;;;3.38;1.00;;;7.20;99.90;;;;;;6222734;28;20067;-81
2023/10/31 04:28:59;;;;;;;7.70;1.20;;;7.20;99.90;;;;;;6218981;28;20046;-82
2023/10/31 04:32:00;;;;;;;4.50;1.15;;;7.20;99.90;;;;;;6223232;28;20060;-81
2023/10/31 04:35:02;;;;;;;4.05;1.10;;;7.20;99.90;;;;;;6184661;28;20055;-83
2023/10/31 04:38:04;;;;;;;5.80;1.08;;;7.30;99.90;;;;;;6222830;28;20097;-81
2023/10/31 04:41:05;;;;;;;2.15;0.90;;;7.30;99.90;;;;;;6218950;28;20145;-82
2023/10/31 04:44:07;;;;;;;3.10;1.17;;;7.30;99.90;;;;;;6194532;28;20138;-81
2023/10/31 04:47:09;;;;;;;7.25;1.20;;;7.30;99.90;;;;;;6196498;28;20132;-82
2023/10/31 04:50:11;;;;;;;4.78;1.30;;;7.30;99.90;;;;;;6235621;28;20061;-81
2023/10/31 04:53:12;;;;;;;4.47;1.10;;;7.30;99.90;;;;;;6219595;28;20551;-82
2023/10/31 04:56:14;;;;;;;6.18;1.55;;;7.40;99.90;;;;;;6220059;28;20574;-80
2023/10/31 04:59:16;;;;;;;5.57;1.40;;;7.50;99.90;;;;;;6211176;28;20061;-81
2023/10/31 05:02:17;;;;;;;6.07;1.40;;;7.50;99.90;;;;;;6218922;28;20133;-82
2023/10/31 05:05:19;;;;;;;6.03;1.60;;;7.50;99.90;;;;;;6188336;28;20054;-81
2023/10/31 05:08:21;;;;;;;6.90;1.58;;;7.50;99.90;;;;;;6211223;28;20498;-81
2023/10/31 05:11:23;;;;;;;3.63;1.30;;;7.50;99.90;;;;;;6220573;28;20054;-82
2023/10/31 05:14:24;;;;;;;6.00;1.58;;;7.60;99.90;;;;;;6206490;28;20707;-82
2023/10/31 05:17:26;;;;;;;3.38;1.20;;;7.60;99.90;;;;;;6218668;28;20386;-82
2023/10/31 05:20:28;;;;;;;4.82;1.40;;;7.60;99.90;;;;;;6218244;28;20164;-82
2023/10/31 05:23:29;;;;;;;4.68;1.60;;;7.60;99.90;;;;;;6213050;28;21809;-82
2023/10/31 05:26:31;;;;;;;6.00;1.45;;;7.70;99.90;;;;;;6219026;28;20065;-83
2023/10/31 05:29:33;;;;;;;3.92;1.60;;;7.70;99.90;;;;;;6215243;28;20050;-82
2023/10/31 05:32:34;;;;;;;5.30;1.40;;;7.70;99.90;;;;;;6218009;28;20074;-82
2023/10/31 05:35:36;;;;;;;3.97;1.40;;;7.70;99.90;;;;;;6179756;28;20054;-82
2023/10/31 05:38:37;;;;;;;4.28;1.40;;;7.80;99.90;;;;;;6216747;28;20061;-81
2023/10/31 05:41:39;;;;;;;3.25;1.60;;;7.80;99.90;;;;;;6217674;28;20046;-81
2023/10/31 05:44:40;;;;;;;3.97;1.38;;;7.80;99.90;;;;;;6192169;28;20055;-82
2023/10/31 05:47:42;;;;;;;5.00;1.20;;;7.80;99.90;;;;;;6216806;28;20506;-82
2023/10/31 05:50:44;;;;;;;3.80;1.38;;;7.70;99.90;;;;;;6211837;28;20054;-82
2023/10/31 05:53:45;;;;;;;3.10;1.40;;;7.80;99.90;;;;;;6233927;28;20053;-82
2023/10/31 05:56:47;;;;;;;3.75;1.58;;;7.80;99.90;;;;;;6218698;28;20079;-82
2023/10/31 05:59:49;;;;;;;3.83;1.40;;;7.80;99.90;;;;;;6215288;28;20053;-82
2023/10/31 06:02:50;;;;;;;4.57;1.45;;;7.80;99.90;;;;;;6197087;28;20062;-82
2023/10/31 06:05:52;;;;;;;3.50;1.45;;;7.80;99.90;;;;;;6231529;28;20181;-82
2023/10/31 06:08:53;;;;;;;3.72;1.50;;;7.70;99.90;;;;;;6217927;28;20057;-82
2023/10/31 06:11:55;;;;;;;4.72;1.67;;;7.60;99.90;;;;;;6204303;28;20502;-81
2023/10/31 06:14:57;;;;;;;3.50;1.50;;;7.60;99.90;;;;;;6207876;28;20065;-82
2023/10/31 06:17:59;;;;;;;6.53;1.95;;;7.60;99.90;;;;;;6190711;28;20130;-81
2023/10/31 06:21:01;;;;;;;4.05;1.80;;;7.60;99.90;;;;;;6207435;28;20046;-81
2023/10/31 06:24:02;;;;;;;3.75;1.60;;;7.60;99.90;;;;;;6230802;28;20052;-82
2023/10/31 06:27:04;;;;;;;4.63;1.75;;;7.60;99.90;;;;;;6200031;28;20053;-82
2023/10/31 06:30:05;;;;;;;3.80;1.60;;;7.60;99.90;;;;;;6181038;28;20054;-82
2023/10/31 06:33:24;;;;;;;4.20;1.73;;;7.60;99.90;;;;;;6203663;28;20054;-82
2023/10/31 06:36:26;;;;;;;6.22;1.75;;;7.60;99.90;;;;;;6199428;28;20395;-82
2023/10/31 06:39:27;;;;;;;4.90;1.70;;;7.60;99.90;;;;;;6214628;28;20055;-82
2023/10/31 06:42:29;;;;;;;5.10;1.80;;;7.60;99.90;;;;;;6221966;28;20135;-83
2023/10/31 06:45:30;;;;;;;4.78;1.77;;;7.70;99.90;;;;;;6220129;28;20058;-82
2023/10/31 06:48:32;;;;;;;8.18;1.90;;;7.70;99.90;;;;;;6221805;28;20056;-82
2023/10/31 06:51:34;;;;;;;5.97;1.83;;;7.80;99.90;;;;;;6221585;28;20568;-83
2023/10/31 06:54:35;;;;;;;4.85;1.90;;;7.80;99.90;;;;;;6221801;28;20054;-82
2023/10/31 06:57:37;;;;;;;6.38;2.35;;;7.80;99.90;;;;;;6221876;28;20501;-82
2023/10/31 07:00:39;;;;;;;5.45;1.70;;;7.90;99.90;;;;;;6218673;28;20053;-81
2023/10/31 07:03:40;;;;;;;5.30;1.83;;;8.00;99.90;;;;;;6172731;28;20422;-82
2023/10/31 07:06:42;;;;;;;6.03;1.90;;;8.00;99.90;;;;;;6221532;28;20421;-82
2023/10/31 07:09:44;;;;;;;6.72;1.70;;;8.10;99.90;;;;;;6221003;28;20490;-81
2023/10/31 07:12:46;;;;;;;6.45;1.90;;;8.20;99.90;;;;;;6222282;28;20061;-81
2023/10/31 07:15:48;;;;;;;6.15;1.80;;;8.20;99.90;;;;;;6218447;28;20111;-81
2023/10/31 07:18:49;;;;;;;4.43;1.73;;;8.20;99.90;;;;;;6220952;28;20069;-80
2023/10/31 07:21:51;;;;;;;6.25;1.55;;;8.20;99.90;;;;;;6221864;28;20046;-87
2023/10/31 07:24:52;;;;;;;6.40;1.80;;;8.30;99.90;;;;;;6221756;28;20058;-82
2023/10/31 07:27:54;;;;;;;9.35;2.33;;;8.30;99.90;;;;;;6221971;28;20501;-82
2023/10/31 07:30:56;;;;;;;7.78;2.33;;;8.30;99.90;;;;;;6217235;28;20060;-82
2023/10/31 07:33:58;;;;;;;4.70;2.03;;;8.40;99.90;;;;;;6220609;28;20456;-81
2023/10/31 07:36:59;;;;;;;6.13;2.40;;;8.50;99.90;;;;;;6221431;28;20492;-82
2023/10/31 07:40:01;;;;;;;5.28;1.92;;;8.50;99.90;;;;;;6220908;28;20065;-82
2023/10/31 07:43:02;;;;;;;6.43;2.20;;;8.60;99.90;;;;;;6220885;28;20046;-83
2023/10/31 07:46:05;;;;;;;7.30;2.30;;;8.60;99.90;;;;;;6218945;28;20054;-83
2023/10/31 07:49:07;;;;;;;7.90;1.83;;;8.60;99.90;;;;;;6220285;28;20656;-83
2023/10/31 07:52:08;;;;;;;5.32;1.50;;;8.80;99.90;;;;;;6221064;28;20418;-82
2023/10/31 07:55:11;;;;;;;4.78;1.40;;;9.00;99.90;;;;;;6221558;28;20057;-82
2023/10/31 07:58:16;;;;;;;5.25;1.73;;;9.10;99.90;;;;;;6179839;28;20060;-82
2023/10/31 08:01:18;;;;;;;5.60;1.20;;;9.40;99.90;;;;;;6220138;28;20395;-84
2023/10/31 08:04:20;;;;;;;5.30;1.20;;;9.50;99.90;;;;;;6219735;28;20188;-83
2023/10/31 08:07:23;;;;;;;7.93;1.30;;;9.70;99.90;;;;;;6220260;28;20202;-83
2023/10/31 08:10:25;;;;;;;5.40;1.13;;;9.80;99.90;;;;;;6221009;28;20053;-83
2023/10/31 08:13:26;;;;;;;6.28;1.10;;;10.00;99.90;;;;;;6217355;28;20435;-83
2023/10/31 08:16:28;;;;;;;4.28;1.05;;;10.00;99.90;;;;;;6217078;28;20430;-82
2023/10/31 08:19:29;;;;;;;5.82;1.25;;;10.20;99.90;;;;;;6220600;28;20054;-83
2023/10/31 08:22:31;;;;;;;5.82;1.00;;;10.30;99.90;;;;;;6218666;28;20046;-82
2023/10/31 08:25:33;;;;;;;5.45;1.10;;;10.40;99.90;;;;;;6220101;28;20406;-81
2023/10/31 08:28:35;;;;;;;6.43;0.95;;;10.50;99.90;;;;;;6217155;28;20077;-82
2023/10/31 08:31:36;;;;;;;3.03;1.00;;;10.60;99.90;;;;;;6218237;28;20131;-81
2023/10/31 08:34:38;;;;;;;4.43;0.95;;;10.70;99.90;;;;;;6220052;28;20054;-80
2023/10/31 08:37:40;;;;;;;7.68;1.23;;;10.90;99.90;;;;;;6220716;28;20081;-80
2023/10/31 08:40:41;;;;;;;5.75;1.42;;;11.00;99.90;;;;;;6220520;28;20132;-80
2023/10/31 08:43:43;;;;;;;5.03;0.90;;;11.10;99.90;;;;;;6217978;28;20064;-80
2023/10/31 08:46:45;;;;;;;5.45;0.90;;;11.30;99.90;;;;;;6220831;28;20050;-79
2023/10/31 08:49:46;;;;;;;4.50;1.17;;;11.50;99.90;;;;;;6219894;28;20135;-80
2023/10/31 08:52:48;;;;;;;3.78;0.93;;;12.10;99.90;;;;;;6218546;28;20196;-79
2023/10/31 08:55:50;;;;;;;3.17;1.15;;;12.40;99.90;;;;;;6219546;28;20060;-83
2023/10/31 08:58:52;;;;;;;5.10;1.00;;;12.30;99.90;;;;;;6217014;28;20060;-83
2023/10/31 09:01:53;;;;;;;6.00;1.05;;;12.80;99.90;;;;;;6221591;28;20058;-84
2023/10/31 09:04:55;;;;;;;6.78;0.88;;;13.70;99.90;;;;;;6218898;28;20058;-83
2023/10/31 09:07:57;;;;;;;4.30;1.10;;;14.70;99.90;;;;;;6222541;28;20054;-85
2023/10/31 09:10:59;;;;;;;5.72;1.27;;;15.30;97.60;;;;;;6224368;28;20132;-88
2023/10/31 09:14:00;;;;;;;5.40;1.33;;;15.80;95.00;;;;;;6223362;28;20064;-90
2023/10/31 09:17:02;;;;;;;4.55;1.00;;;16.10;85.90;;;;;;6202125;28;20054;-82
2023/10/31 09:20:04;;;;;;;3.38;1.10;;;16.40;84.50;;;;;;6218516;28;20073;-86
2023/10/31 09:23:05;;;;;;;11.20;1.20;;;16.30;83.00;;;;;;6217997;28;20045;-83
2023/10/31 09:26:07;;;;;;;3.95;1.40;;;16.30;89.00;;;;;;6219989;28;20054;-82
2023/10/31 09:29:09;;;;;;;8.02;1.55;;;15.90;81.10;;;;;;6192937;28;20108;-90
2023/10/31 09:32:23;;;;;;;3.25;1.00;;;15.80;88.00;;;;;;6193962;28;20065;-92
2023/10/31 09:35:26;;;;;;;3.45;1.00;;;16.30;88.60;;;;;;6212156;28;20058;-87
2023/10/31 09:38:28;;;;;;;6.07;1.00;;;16.50;79.00;;;;;;6218635;28;20049;-84
2023/10/31 09:41:32;;;;;;;3.75;1.25;;;16.80;79.10;;;;;;6219594;28;20148;-88
2023/10/31 09:44:33;;;;;;;4.53;1.27;;;17.10;78.70;;;;;;6214964;28;20053;-87
2023/10/31 09:47:35;;;;;;;2.92;0.88;;;17.50;77.50;;;;;;6199852;28;20140;-85
2023/10/31 09:50:37;;;;;;;6.10;1.27;;;17.80;39.70;;;;;;6234362;28;20058;-89
2023/10/31 09:53:38;;;;;;;3.10;1.13;;;17.90;60.70;;;;;;6218551;28;20064;-89
2023/10/31 09:56:40;;;;;;;5.25;1.20;;;18.00;34.50;;;;;;6219330;28;20130;-88
2023/10/31 09:59:42;;;;;;;5.47;1.50;;;18.30;45.80;;;;;;6215463;28;20070;-87
2023/10/31 10:02:44;;;;;;;4.10;1.42;;;18.60;15.90;;;;;;6219841;28;20121;-89
2023/10/31 10:05:46;;;;;;;3.92;1.73;;;18.90;38.20;;;;;;6218564;28;20131;-89
2023/10/31 10:08:48;;;;;;;4.03;1.60;;;19.00;19.60;;;;;;6218638;28;20057;-87
2023/10/31 10:11:49;;;;;;;5.53;1.73;;;19.00;1.00;;;;;;6224442;28;20050;-87
2023/10/31 10:14:51;;;;;;;6.38;1.63;;;18.90;1.00;;;;;;6218014;28;20061;-89
2023/10/31 10:17:53;;;;;;;5.50;1.55;;;18.90;11.60;;;;;;6223778;28;20065;-88
2023/10/31 10:20:55;;;;;;;5.45;2.28;;;19.00;18.00;;;;;;6223166;28;20397;-89
2023/10/31 10:23:58;;;;;;;4.38;1.50;;;19.30;1.00;;;;;;6223160;28;20524;-87
2023/10/31 10:27:00;;;;;;;6.78;2.10;;;19.40;1.00;;;;;;6223764;28;20077;-89
2023/10/31 10:30:03;;;;;;;2.75;1.50;;;19.50;1.00;;;;;;6221151;28;20180;-87
2023/10/31 10:33:05;;;;;;;4.60;1.55;;;19.80;1.00;;;;;;6223376;28;20432;-88
2023/10/31 10:36:06;;;;;;;5.68;2.05;;;19.10;1.00;;;;;;6224817;28;20390;-89
2023/10/31 10:39:09;;;;;;;6.05;1.80;;;19.30;1.00;;;;;;6224586;28;20056;-88
2023/10/31 10:42:11;;;;;;;5.07;1.95;;;19.60;1.00;;;;;;6225723;28;20046;-91
2023/10/31 10:45:13;;;;;;;5.65;2.03;;;19.80;1.00;;;;;;6226753;28;20176;-91
2023/10/31 10:48:15;;;;;;;4.50;1.70;;;19.80;1.00;;;;;;6223367;28;20069;-85
2023/10/31 10:51:17;;;;;;;5.72;1.90;;;19.80;1.00;;;;;;6225100;28;20519;-83
2023/10/31 10:54:19;;;;;;;4.00;1.90;;;20.50;1.00;;;;;;6225690;28;20045;-92
2023/10/31 10:57:23;;;;;;;5.03;1.83;;;20.90;1.00;;;;;;6233820;28;20073;-90
2023/10/31 11:00:34;;;;;;;5.10;1.38;;;21.10;1.00;;;;;;6199607;28;20062;-85
2023/10/31 11:03:36;;;;;;;3.85;1.60;;;20.80;1.00;;;;;;6220990;28;20124;-86
2023/10/31 11:06:38;;;;;;;4.88;1.70;;;20.60;1.00;;;;;;6227725;28;20049;-94
2023/10/31 11:09:39;;;;;;;4.35;1.48;;;20.90;1.00;;;;;;6225214;28;20443;-92
2023/10/31 11:12:41;;;;;;;5.75;1.38;;;20.40;1.00;;;;;;6226983;28;20054;-92
2023/10/31 11:15:43;;;;;;;4.10;1.52;;;20.10;1.00;;;;;;6220268;28;20145;-85
2023/10/31 11:18:45;;;;;;;5.05;1.50;;;20.10;1.00;;;;;;6223179;28;20091;-90
2023/10/31 11:21:46;;;;;;;5.47;1.23;;;20.50;1.00;;;;;;6222986;28;20065;-95
2023/10/31 11:24:48;;;;;;;4.65;1.30;;;20.90;1.00;;;;;;6223247;28;20521;-88
2023/10/31 11:27:50;;;;;;;4.13;2.00;;;21.20;1.00;;;;;;6221357;28;20056;-88
2023/10/31 11:30:56;;;;;;;4.45;1.33;;;21.50;1.00;;;;;;6220647;28;20045;-93
2023/10/31 11:33:58;;;;;;;4.50;1.38;;;20.90;1.00;;;;;;6227254;28;20050;-91
2023/10/31 11:37:00;;;;;;;3.05;1.00;;;20.30;1.00;;;;;;6225698;28;20393;-87
2023/10/31 11:40:02;;;;;;;4.28;1.10;;;19.60;1.00;;;;;;6224336;28;20049;-89
2023/10/31 11:43:04;;;;;;;7.88;1.40;;;18.90;1.00;;;;;;6208371;28;20056;-85
2023/10/31 11:46:07;;;;;;;6.25;1.20;;;18.20;1.00;;;;;;6222527;28;20058;-86
2023/10/31 11:49:08;;;;;;;4.95;1.35;;;17.70;1.00;;;;;;6176290;28;20054;-91
2023/10/31 11:52:10;;;;;;;5.05;1.30;;;17.60;1.00;;;;;;6211881;28;20050;-88
2023/10/31 11:55:12;;;;;;;8.75;1.20;;;17.20;1.00;;;;;;6195712;28;20047;-93
2023/10/31 11:58:13;;;;;;;6.20;1.10;;;16.70;1.00;;;;;;6215477;28;20038;-89
2023/10/31 12:01:15;;;;;;;3.33;1.35;;;17.30;17.80;;;;;;6252827;28;20042;-85
2023/10/31 12:04:16;;;;;;;6.97;1.27;;;17.60;1.00;;;;;;6234001;28;20046;-93
2023/10/31 12:07:18;;;;;;;5.70;1.30;;;17.20;1.00;;;;;;6222220;28;20069;-86
2023/10/31 12:10:21;;;;;;;6.38;1.20;;;17.40;1.00;;;;;;6221687;28;20056;-92
2023/10/31 12:13:22;;;;;;;3.63;0.90;;;17.50;1.00;;;;;;6209061;28;20829;-84
2023/10/31 12:16:24;;;;;;;2.83;1.00;;;18.00;1.00;;;;;;6221339;28;20068;-85
2023/10/31 12:19:27;;;;;;;5.75;1.15;;;18.70;1.00;;;;;;6220987;28;20054;-89
2023/10/31 12:22:28;;;;;;;5.28;1.10;;;18.90;1.00;;;;;;6217217;28;20050;-94
2023/10/31 12:25:32;;;;;;;4.65;0.90;;;19.40;1.00;;;;;;6207707;28;20081;-92
2023/10/31 12:28:34;;;;;;;6.93;1.13;;;18.60;1.00;;;;;;6219530;28;20065;-86
2023/10/31 12:31:36;;;;;;;5.43;1.20;;;18.00;1.00;;;;;;6218572;28;20525;-89
2023/10/31 12:34:37;;;;;;;3.08;1.00;;;18.20;1.00;;;;;;6221841;28;20145;-91
2023/10/31 12:37:39;;;;;;;9.00;1.50;;;18.20;1.00;;;;;;6221000;28;20057;-84
2023/10/31 12:40:41;;;;;;;4.90;1.40;;;17.70;1.00;;;;;;6219126;28;20054;-79
2023/10/31 12:43:43;;;;;;;3.15;1.00;;;17.20;1.00;;;;;;6215236;28;20506;-83
2023/10/31 12:46:44;;;;;;;5.40;1.10;;;16.60;1.00;;;;;;6219806;28;20056;-82
2023/10/31 12:49:46;;;;;;;5.68;1.20;;;16.20;4.00;;;;;;6218334;28;20049;-80
2023/10/31 12:52:47;;;;;;;3.60;1.10;;;16.00;1.30;;;;;;6220216;28;20054;-86
2023/10/31 12:55:50;;;;;;;4.60;1.10;;;16.40;5.00;;;;;;6217796;28;20054;-83
2023/10/31 12:58:51;;;;;;;4.78;1.30;;;17.50;1.00;;;;;;6217253;28;20056;-83
2023/10/31 13:01:53;;;;;;;4.80;1.45;;;18.20;1.00;;;;;;6218920;28;20049;-83
2023/10/31 13:04:56;;;;;;;2.20;0.82;;;18.80;1.00;;;;;;6222352;28;20253;-87
2023/10/31 13:08:00;;;;;;;2.33;0.80;;;19.10;1.00;;;;;;6220927;28;20049;-82
2023/10/31 13:11:01;;;;;;;2.92;0.93;;;19.30;1.00;;;;;;6219640;28;20069;-84
2023/10/31 13:14:03;;;;;;;4.10;0.70;;;19.30;1.00;;;;;;6216690;28;20323;-81
2023/10/31 13:17:05;;;;;;;2.00;0.85;;;19.60;1.00;;;;;;6217718;28;20064;-85
2023/10/31 13:20:07;;;;;;;1.85;0.70;;;20.40;1.00;;;;;;6219552;28;20052;-87
2023/10/31 13:23:09;;;;;;;2.22;0.60;;;20.00;1.00;;;;;;6218041;28;20066;-88
2023/10/31 13:26:11;;;;;;;4.25;0.93;;;19.30;1.00;;;;;;6218668;28;20063;-88
2023/10/31 13:29:13;;;;;;;3.38;0.80;;;18.60;1.00;;;;;;6218537;28;20053;-83
2023/10/31 13:32:15;;;;;;;3.45;1.00;;;18.50;1.00;;;;;;6200218;28;20050;-87
2023/10/31 13:35:17;;;;;;;3.03;1.02;;;19.30;1.00;;;;;;6219912;28;20636;-85
2023/10/31 13:38:18;;;;;;;3.35;0.93;;;19.70;1.00;;;;;;6217420;28;20053;-84
2023/10/31 13:41:20;;;;;;;3.67;0.90;;;19.70;1.00;;;;;;6218729;28;20094;-91
2023/10/31 13:44:22;;;;;;;5.30;0.90;;;19.80;1.00;;;;;;6214104;28;20056;-81
2023/10/31 13:47:23;;;;;;;4.40;0.90;;;18.80;1.00;;;;;;6218637;28;20489;-82
2023/10/31 13:50:25;;;;;;;3.35;0.80;;;18.20;1.00;;;;;;6218899;28;20156;-82
2023/10/31 13:53:27;;;;;;;2.33;0.80;;;18.20;1.00;;;;;;6195472;28;20050;-83
2023/10/31 13:56:30;;;;;;;3.10;0.90;;;18.80;1.00;;;;;;6224284;28;20107;-95
2023/10/31 13:59:34;;;;;;;3.75;0.90;;;18.70;1.00;;;;;;6206540;28;20054;-82
2023/10/31 14:02:36;;;;;;;2.75;0.90;;;18.90;1.00;;;;;;6221107;28;20702;-89
2023/10/31 14:05:41;;;;;;;4.40;1.10;;;19.30;1.00;;;;;;6222677;28;20050;-91
2023/10/31 14:08:43;;;;;;;2.53;0.95;;;19.50;1.00;;;;;;6172699;28;20051;-92
2023/10/31 14:11:45;;;;;;;2.63;1.00;;;19.10;1.00;;;;;;6236862;28;20058;-83
2023/10/31 14:14:48;;;;;;;3.20;0.88;;;18.60;1.00;;;;;;6221226;28;20080;-83
2023/10/31 14:17:50;;;;;;;3.67;0.95;;;18.40;1.00;;;;;;6226240;28;20069;-89
2023/10/31 14:20:52;;;;;;;3.28;0.90;;;18.40;1.00;;;;;;6223933;28;20061;-82
2023/10/31 14:23:54;;;;;;;3.08;0.90;;;18.30;1.00;;;;;;6229820;28;20058;-81
2023/10/31 14:27:05;;;;;;;2.63;0.77;;;18.30;1.00;;;;;;6222521;28;20049;-87
2023/10/31 14:30:07;;;;;;;3.28;0.90;;;18.30;1.00;;;;;;6221440;28;20140;-85
2023/10/31 14:33:08;;;;;;;2.95;1.00;;;17.90;1.00;;;;;;6173941;28;20047;-91
2023/10/31 14:36:12;;;;;;;4.88;0.95;;;17.80;1.00;;;;;;6240635;28;20128;-95
2023/10/31 14:39:14;;;;;;;3.35;0.90;;;17.40;1.00;;;;;;6230004;28;20054;-94
2023/10/31 14:42:16;;;;;;;2.20;0.90;;;16.90;1.00;;;;;;6222815;28;20061;-83
2023/10/31 14:45:18;;;;;;;5.05;0.90;;;16.50;1.00;;;;;;6218122;28;20057;-86
2023/10/31 14:48:20;;;;;;;5.13;0.93;;;16.20;1.00;;;;;;6219131;28;20149;-80
2023/10/31 14:51:22;;;;;;;4.03;0.95;;;16.00;1.00;;;;;;6213214;28;20073;-79
2023/10/31 14:54:25;;;;;;;6.90;1.40;;;15.90;1.00;;;;;;6218240;28;20061;-80
2023/10/31 14:57:27;;;;;;;4.18;1.02;;;15.80;1.00;;;;;;6172552;28;20816;-87
2023/10/31 15:00:29;;;;;;;6.88;1.20;;;15.70;1.00;;;;;;6236350;28;20053;-90
2023/10/31 15:03:31;;;;;;;6.10;1.40;;;15.60;1.00;;;;;;6190114;28;20051;-77
2023/10/31 15:06:33;;;;;;;5.28;1.42;;;15.60;1.00;;;;;;6225534;28;20046;-85
2023/10/31 15:09:35;;;;;;;6.18;1.63;;;15.50;2.60;;;;;;6223322;28;20140;-84
2023/10/31 15:12:37;;;;;;;7.53;1.40;;;15.40;5.70;;;;;;6222034;28;20561;-84
2023/10/31 15:15:38;;;;;;;6.43;1.08;;;15.20;8.00;;;;;;6223758;28;20062;-87
2023/10/31 15:18:40;;;;;;;7.05;1.38;;;15.10;8.00;;;;;;6221209;28;20425;-85
2023/10/31 15:21:44;;;;;;;8.40;1.42;;;15.00;24.80;;;;;;6220131;28;20419;-77
2023/10/31 15:24:46;;;;;;;6.18;1.13;;;15.00;29.40;;;;;;6220697;28;20106;-81
2023/10/31 15:27:48;;;;;;;5.85;1.50;;;14.90;30.30;;;;;;6220653;28;20061;-77
2023/10/31 15:30:49;;;;;;;3.15;0.90;;;14.80;46.40;;;;;;6214813;28;20516;-78
2023/10/31 15:33:51;;;;;;;3.30;0.88;;;14.60;23.70;;;;;;6173119;28;20513;-79
2023/10/31 15:36:53;;;;;;;4.57;1.10;;;14.30;47.90;;;;;;6220351;28;20520;-80
2023/10/31 15:39:54;;;;;;;4.88;1.00;;;14.00;63.30;;;;;;6223623;28;20413;-79
2023/10/31 15:42:56;;;;;;;6.68;1.20;;;13.80;68.00;;;;;;6219449;28;20448;-78
2023/10/31 15:45:57;;;;;;;3.45;1.02;;;13.70;73.50;;;;;;6219393;28;20045;-78
2023/10/31 15:48:59;;;;;;;3.47;0.80;;;13.60;74.60;;;;;;6171427;28;20046;-79
2023/10/31 15:52:00;;;;;;;3.63;1.00;;;13.60;78.10;;;;;;6219993;28;20054;-78
2023/10/31 15:55:02;;;;;;;3.08;0.80;;;13.50;74.90;;;;;;6221216;28;20053;-77
2023/10/31 15:58:05;;;;;;;3.63;0.90;;;13.50;77.60;;;;;;6219662;28;20188;-77